createdAt,value
2022-09-06T00:01:26.960Z,19.15
2022-09-06T00:03:55.035Z,19.15
2022-09-06T00:06:23.035Z,19.14
2022-09-06T00:08:51.050Z,19.13
2022-09-06T00:11:19.624Z,19.06
2022-09-06T00:13:48.524Z,19.05
2022-09-06T00:16:19.051Z,19.04
2022-09-06T00:18:48.478Z,19.01
2022-09-06T00:21:19.053Z,19.01
2022-09-06T00:23:47.087Z,18.96
2022-09-06T00:26:15.373Z,18.95
2022-09-06T00:28:43.511Z,18.93
2022-09-06T00:31:12.672Z,18.90
2022-09-06T00:33:41.022Z,18.90
2022-09-06T00:36:11.215Z,18.87
2022-09-06T00:38:39.712Z,18.85
2022-09-06T00:41:10.277Z,18.86
2022-09-06T00:43:38.581Z,18.88
2022-09-06T00:46:07.546Z,18.87
2022-09-06T00:48:36.580Z,18.81
2022-09-06T00:51:08.394Z,18.77
2022-09-06T00:53:37.948Z,18.77
2022-09-06T00:56:06.570Z,18.76
2022-09-06T00:58:34.705Z,18.72
2022-09-06T01:01:02.989Z,18.70
2022-09-06T01:03:31.025Z,18.67
2022-09-06T01:06:05.121Z,18.65
2022-09-06T01:08:44.139Z,18.62
2022-09-06T01:11:28.360Z,18.62
2022-09-06T01:14:01.535Z,18.53
2022-09-06T01:16:37.383Z,18.52
2022-09-06T01:19:27.335Z,18.49
2022-09-06T01:22:00.707Z,18.49
2022-09-06T01:25:01.214Z,18.47
2022-09-06T01:27:45.474Z,18.44
2022-09-06T01:30:14.736Z,18.42
2022-09-06T01:32:47.954Z,18.39
2022-09-06T01:35:22.439Z,18.38
2022-09-06T01:37:50.692Z,18.36
2022-09-06T01:40:18.938Z,18.35
2022-09-06T01:42:50.203Z,18.34
2022-09-06T01:45:20.850Z,18.32
2022-09-06T01:47:58.043Z,18.31
2022-09-06T01:50:52.186Z,18.27
2022-09-06T01:53:32.494Z,18.23
2022-09-06T01:56:05.698Z,18.25
2022-09-06T01:58:52.122Z,18.20
2022-09-06T02:01:23.470Z,18.19
2022-09-06T02:03:56.858Z,18.18
2022-09-06T02:06:28.706Z,18.15
2022-09-06T02:09:02.076Z,18.17
2022-09-06T02:11:35.051Z,18.14
2022-09-06T02:14:08.531Z,18.11
2022-09-06T02:16:39.672Z,18.09
2022-09-06T02:19:34.086Z,18.05
2022-09-06T02:22:04.834Z,18.02
2022-09-06T02:24:34.685Z,18.01
2022-09-06T02:27:02.711Z,17.98
2022-09-06T02:29:32.192Z,17.94
2022-09-06T02:32:03.031Z,17.94
2022-09-06T02:34:31.548Z,17.94
2022-09-06T02:36:59.751Z,17.92
2022-09-06T02:39:27.766Z,17.87
2022-09-06T02:41:56.140Z,17.85
2022-09-06T02:44:24.190Z,17.85
2022-09-06T02:46:56.947Z,17.83
2022-09-06T02:49:25.490Z,17.83
2022-09-06T02:51:53.495Z,17.82
2022-09-06T02:54:21.512Z,17.80
2022-09-06T02:56:52.225Z,17.77
2022-09-06T02:59:20.654Z,17.76
2022-09-06T03:01:48.895Z,17.77
2022-09-06T03:04:18.294Z,17.74
2022-09-06T03:06:46.395Z,17.71
2022-09-06T03:09:14.859Z,17.76
2022-09-06T03:11:42.978Z,17.72
2022-09-06T03:14:11.230Z,17.72
2022-09-06T03:16:39.365Z,17.68
2022-09-06T03:19:07.431Z,17.64
2022-09-06T03:21:36.850Z,17.67
2022-09-06T03:24:05.223Z,17.68
2022-09-06T03:26:33.303Z,17.67
2022-09-06T03:29:01.311Z,17.59
2022-09-06T03:31:29.416Z,17.57
2022-09-06T03:33:57.444Z,17.57
2022-09-06T03:36:25.476Z,17.57
2022-09-06T03:38:55.019Z,17.56
2022-09-06T03:41:23.056Z,17.52
2022-09-06T03:43:51.076Z,17.50
2022-09-06T03:46:19.186Z,17.49
2022-09-06T03:48:47.284Z,17.43
2022-09-06T03:51:15.541Z,17.41
2022-09-06T03:53:43.575Z,17.35
2022-09-06T03:56:13.020Z,17.32
2022-09-06T03:58:41.088Z,17.29
2022-09-06T04:01:11.875Z,17.23
2022-09-06T04:03:41.011Z,17.20
2022-09-06T04:06:09.413Z,17.17
2022-09-06T04:08:38.168Z,17.17
2022-09-06T04:11:06.885Z,17.14
2022-09-06T04:13:37.596Z,17.13
2022-09-06T04:16:06.454Z,17.14
2022-09-06T04:18:34.796Z,17.16
2022-09-06T04:21:02.897Z,17.13
2022-09-06T04:23:31.019Z,17.06
2022-09-06T04:26:00.252Z,17.03
2022-09-06T04:28:28.953Z,17.01
2022-09-06T04:31:03.966Z,16.99
2022-09-06T04:33:33.625Z,16.93
2022-09-06T04:36:02.688Z,16.96
2022-09-06T04:38:33.201Z,16.91
2022-09-06T04:41:01.278Z,16.91
2022-09-06T04:43:29.418Z,16.89
2022-09-06T04:46:04.297Z,16.84
2022-09-06T04:48:32.456Z,16.85
2022-09-06T04:51:00.491Z,16.84
2022-09-06T04:53:28.583Z,16.85
2022-09-06T04:55:58.515Z,16.81
2022-09-06T04:58:26.839Z,16.79
2022-09-06T05:00:54.995Z,16.78
2022-09-06T05:03:24.437Z,16.78
2022-09-06T05:05:52.519Z,16.74
2022-09-06T05:08:20.624Z,16.76
2022-09-06T05:10:52.399Z,16.77
2022-09-06T05:13:20.495Z,16.80
2022-09-06T05:15:48.600Z,16.81
2022-09-06T05:18:16.666Z,16.80
2022-09-06T05:20:52.663Z,16.81
2022-09-06T05:23:20.762Z,16.80
2022-09-06T05:25:49.149Z,16.79
2022-09-06T05:28:17.779Z,16.81
2022-09-06T05:30:45.979Z,16.84
2022-09-06T05:33:15.627Z,16.83
2022-09-06T05:35:43.711Z,16.83
2022-09-06T05:38:13.151Z,16.83
2022-09-06T05:40:41.207Z,16.84
2022-09-06T05:43:09.337Z,16.86
2022-09-06T05:45:37.569Z,16.87
2022-09-06T05:48:05.672Z,16.87
2022-09-06T05:50:33.744Z,16.89
2022-09-06T05:53:02.196Z,16.89
2022-09-06T05:55:31.694Z,16.92
2022-09-06T05:57:59.754Z,16.93
2022-09-06T06:00:27.803Z,16.94
2022-09-06T06:02:55.818Z,16.96
2022-09-06T06:05:23.882Z,16.97
2022-09-06T06:07:52.158Z,16.99
2022-09-06T06:10:20.205Z,16.99
2022-09-06T06:12:50.052Z,17.02
2022-09-06T06:15:18.160Z,17.03
2022-09-06T06:17:46.287Z,16.92
2022-09-06T06:20:14.467Z,17.02
2022-09-06T06:22:42.706Z,17.04
2022-09-06T06:25:12.773Z,16.99
2022-09-06T06:27:41.027Z,16.91
2022-09-06T06:30:17.795Z,16.93
2022-09-06T06:32:46.473Z,17.02
2022-09-06T06:35:14.774Z,16.97
2022-09-06T06:37:42.857Z,17.03
2022-09-06T06:40:11.662Z,17.01
2022-09-06T06:42:39.773Z,16.88
2022-09-06T06:45:11.142Z,16.84
2022-09-06T06:47:39.253Z,16.93
2022-09-06T06:50:08.233Z,16.95
2022-09-06T06:52:36.314Z,17.10
2022-09-06T06:55:05.959Z,17.12
2022-09-06T06:57:34.060Z,17.24
2022-09-06T07:00:03.508Z,17.31
2022-09-06T07:02:33.071Z,17.30
2022-09-06T07:05:01.273Z,17.33
2022-09-06T07:12:50.696Z,17.58
2022-09-06T07:15:18.808Z,17.60
2022-09-06T07:17:48.262Z,17.69
2022-09-06T07:20:16.814Z,17.75
2022-09-06T07:22:44.955Z,17.81
2022-09-06T07:25:20.366Z,17.93
2022-09-06T07:27:50.128Z,18.04
2022-09-06T07:30:19.984Z,18.14
2022-09-06T07:32:49.924Z,18.21
2022-09-06T07:35:20.372Z,18.32
2022-09-06T07:37:55.186Z,18.46
2022-09-06T07:40:23.578Z,18.55
2022-09-06T07:42:51.748Z,18.67
2022-09-06T07:45:20.212Z,18.77
2022-09-06T07:50:47.669Z,18.96
2022-09-06T07:53:23.325Z,19.00
2022-09-06T07:55:59.844Z,19.09
2022-09-06T07:58:28.127Z,19.16
2022-09-06T08:00:56.349Z,19.25
2022-09-06T08:03:25.749Z,19.31
2022-09-06T08:06:09.752Z,19.37
2022-09-06T08:11:28.370Z,19.50
2022-09-06T08:13:57.647Z,19.59
2022-09-06T08:16:27.894Z,19.66
2022-09-06T08:18:58.817Z,19.67
2022-09-06T08:21:28.707Z,19.70
2022-09-06T08:23:58.388Z,19.85
2022-09-06T08:26:27.231Z,19.91
2022-09-06T08:28:57.427Z,19.98
2022-09-06T08:31:25.645Z,20.06
2022-09-06T08:33:54.092Z,20.06
2022-09-06T08:36:23.711Z,20.15
2022-09-06T08:38:51.759Z,20.22
2022-09-06T08:41:25.949Z,20.16
2022-09-06T08:46:52.403Z,20.25
2022-09-06T08:49:20.637Z,20.26
2022-09-06T08:52:12.909Z,20.29
2022-09-06T08:54:42.545Z,20.32
2022-09-06T08:57:22.022Z,20.29
2022-09-06T08:59:51.681Z,20.38
2022-09-06T09:02:22.054Z,20.48
2022-09-06T09:04:52.518Z,20.62
2022-09-06T09:07:31.268Z,20.71
2022-09-06T09:09:59.639Z,20.75
2022-09-06T09:12:29.353Z,20.85
2022-09-06T09:15:03.346Z,20.90
2022-09-06T09:17:32.633Z,20.96
2022-09-06T09:20:00.687Z,21.05
2022-09-06T09:22:30.120Z,21.13
2022-09-06T09:24:59.163Z,21.17
2022-09-06T09:27:28.930Z,21.25
2022-09-06T09:32:50.662Z,21.43
2022-09-06T09:35:31.897Z,21.48
2022-09-06T09:38:11.802Z,21.57
2022-09-06T09:40:42.115Z,21.64
2022-09-06T09:43:14.396Z,21.71
2022-09-06T09:45:42.610Z,21.82
2022-09-06T09:48:22.929Z,21.94
2022-09-06T09:50:51.175Z,21.96
2022-09-06T09:53:22.691Z,22.02
2022-09-06T09:55:56.606Z,22.06
2022-09-06T09:58:32.869Z,22.16
2022-09-06T10:01:18.469Z,22.17
2022-09-06T10:09:34.869Z,22.43
2022-09-06T10:12:03.354Z,22.45
2022-09-06T10:14:32.782Z,22.56
2022-09-06T10:17:01.569Z,22.64
2022-09-06T10:19:40.838Z,22.71
2022-09-06T10:22:20.677Z,22.83
2022-09-06T10:25:09.178Z,22.92
2022-09-06T10:27:55.472Z,22.94
2022-09-06T10:30:30.671Z,23.08
2022-09-06T10:33:01.678Z,22.96
2022-09-06T10:35:32.338Z,22.98
2022-09-06T10:38:16.862Z,23.08
2022-09-06T10:40:53.211Z,23.14
2022-09-06T10:43:21.787Z,23.17
2022-09-06T10:45:59.196Z,23.27
2022-09-06T10:48:30.350Z,23.31
2022-09-06T10:51:01.066Z,23.34
2022-09-06T10:53:44.894Z,23.50
2022-09-06T10:56:17.915Z,23.61
2022-09-06T11:01:43.419Z,23.83
2022-09-06T11:04:20.109Z,23.84
2022-09-06T11:06:52.247Z,23.85
2022-09-06T11:09:25.551Z,23.92
2022-09-06T11:12:03.515Z,23.96
2022-09-06T11:14:31.603Z,24.09
2022-09-06T11:17:03.189Z,24.17
2022-09-06T11:19:34.155Z,24.23
2022-09-06T11:22:27.340Z,24.25
2022-09-06T11:25:23.955Z,24.31
2022-09-06T11:27:58.115Z,24.35
2022-09-06T11:30:26.948Z,24.35
2022-09-06T11:33:07.877Z,24.37
2022-09-06T11:35:36.302Z,24.45
2022-09-06T11:38:06.456Z,24.49
2022-09-06T11:40:38.553Z,24.57
2022-09-06T11:43:13.471Z,24.66
2022-09-06T11:45:44.825Z,24.73
2022-09-06T11:48:37.321Z,24.66
2022-09-06T11:51:07.810Z,24.73
2022-09-06T11:53:37.419Z,24.81
2022-09-06T11:56:15.632Z,24.89
2022-09-06T11:58:52.865Z,24.85
2022-09-06T12:01:40.967Z,24.93
2022-09-06T12:04:11.241Z,25.09
2022-09-06T12:06:41.644Z,25.17
2022-09-06T12:09:30.814Z,25.21
2022-09-06T12:11:59.886Z,25.20
2022-09-06T12:14:34.701Z,25.36
2022-09-06T12:17:27.443Z,25.33
2022-09-06T12:19:59.568Z,25.40
2022-09-06T12:23:04.416Z,25.54
2022-09-06T12:25:56.055Z,25.64
2022-09-06T12:28:39.116Z,25.68
2022-09-06T12:31:32.176Z,25.76
2022-09-06T12:34:00.831Z,25.83
2022-09-06T12:36:31.937Z,25.88
2022-09-06T12:39:02.258Z,25.89
2022-09-06T12:41:32.850Z,25.90
2022-09-06T12:44:02.891Z,25.96
2022-09-06T12:46:32.860Z,25.97
2022-09-06T12:49:03.051Z,25.96
2022-09-06T12:51:31.251Z,26.06
2022-09-06T12:54:01.219Z,26.13
2022-09-06T12:56:30.499Z,26.02
2022-09-06T12:59:14.419Z,26.15
2022-09-06T13:01:49.293Z,26.20
2022-09-06T13:04:27.755Z,26.33
2022-09-06T13:06:56.874Z,26.41
2022-09-06T13:09:27.028Z,26.44
2022-09-06T13:11:58.026Z,26.34
2022-09-06T13:14:27.223Z,26.38
2022-09-06T13:16:57.905Z,26.51
2022-09-06T13:19:42.637Z,26.70
2022-09-06T13:22:11.907Z,26.87
2022-09-06T13:24:49.120Z,26.99
2022-09-06T13:27:34.583Z,27.09
2022-09-06T13:30:05.768Z,27.00
2022-09-06T13:32:35.727Z,26.90
2022-09-06T13:35:04.460Z,27.03
2022-09-06T13:37:33.847Z,27.11
2022-09-06T13:40:05.189Z,27.14
2022-09-06T13:42:34.128Z,27.20
2022-09-06T13:45:17.507Z,27.20
2022-09-06T13:47:46.943Z,27.29
2022-09-06T13:50:15.949Z,27.42
2022-09-06T13:53:09.286Z,27.53
2022-09-06T13:55:37.477Z,27.59
2022-09-06T13:58:06.157Z,27.49
2022-09-06T14:00:34.350Z,27.60
2022-09-06T14:03:03.861Z,27.61
2022-09-06T14:05:32.087Z,27.23
2022-09-06T14:08:00.401Z,27.25
2022-09-06T14:10:28.513Z,27.21
2022-09-06T14:12:56.622Z,27.36
2022-09-06T14:15:25.161Z,27.52
2022-09-06T14:17:53.366Z,27.53
2022-09-06T14:20:22.806Z,27.51
2022-09-06T14:22:50.924Z,27.71
2022-09-06T14:25:18.989Z,27.70
2022-09-06T14:27:48.535Z,27.72
2022-09-06T14:30:16.727Z,27.79
2022-09-06T14:32:44.807Z,27.91
2022-09-06T14:35:13.331Z,27.91
2022-09-06T14:37:43.467Z,27.77
2022-09-06T14:40:12.022Z,27.48
2022-09-06T14:42:41.734Z,27.56
2022-09-06T14:45:10.673Z,27.52
2022-09-06T14:47:39.070Z,27.65
2022-09-06T14:50:08.293Z,27.91
2022-09-06T14:52:36.429Z,28.13
2022-09-06T14:55:06.843Z,28.28
2022-09-06T14:57:35.354Z,28.33
2022-09-06T15:00:08.337Z,28.38
2022-09-06T15:02:36.694Z,28.46
2022-09-06T15:05:05.848Z,28.43
2022-09-06T15:07:33.882Z,28.40
2022-09-06T15:10:03.223Z,28.43
2022-09-06T15:12:32.675Z,28.44
2022-09-06T15:15:00.754Z,28.08
2022-09-06T15:17:28.817Z,28.13
2022-09-06T15:19:56.916Z,28.10
2022-09-06T15:22:24.996Z,28.08
2022-09-06T15:24:53.191Z,28.19
2022-09-06T15:27:21.576Z,27.99
2022-09-06T15:29:51.538Z,28.07
2022-09-06T15:32:19.740Z,27.81
2022-09-06T15:34:47.842Z,27.75
2022-09-06T15:37:15.903Z,28.00
2022-09-06T15:39:44.065Z,27.65
2022-09-06T15:42:12.166Z,27.77
2022-09-06T15:44:40.708Z,27.82
2022-09-06T15:47:10.210Z,27.78
2022-09-06T15:49:38.533Z,27.89
2022-09-06T15:52:08.012Z,27.91
2022-09-06T15:54:53.941Z,27.88
2022-09-06T15:57:22.285Z,27.96
2022-09-06T15:59:50.385Z,27.75
2022-09-06T16:02:19.986Z,27.76
2022-09-06T16:04:48.120Z,27.72
2022-09-06T16:07:16.281Z,27.70
2022-09-06T16:09:45.379Z,27.76
2022-09-06T16:12:13.424Z,27.77
2022-09-06T16:14:41.573Z,27.64
2022-09-06T16:17:09.685Z,27.39
2022-09-06T16:19:39.860Z,27.43
2022-09-06T16:22:08.009Z,27.39
2022-09-06T16:24:36.214Z,27.42
2022-09-06T16:27:04.456Z,27.49
2022-09-06T16:29:32.581Z,27.51
2022-09-06T16:32:00.758Z,27.53
2022-09-06T16:34:28.868Z,27.43
2022-09-06T16:36:58.460Z,27.45
2022-09-06T16:39:27.077Z,27.43
2022-09-06T16:41:55.206Z,27.15
2022-09-06T16:44:23.270Z,27.22
2022-09-06T16:46:53.002Z,27.28
2022-09-06T16:49:21.376Z,27.30
2022-09-06T16:51:51.120Z,27.30
2022-09-06T16:54:20.762Z,27.28
2022-09-06T16:56:49.071Z,27.28
2022-09-06T16:59:17.391Z,27.25
2022-09-06T17:01:46.230Z,27.20
2022-09-06T17:04:14.618Z,27.17
2022-09-06T17:06:45.881Z,27.13
2022-09-06T17:09:15.513Z,27.10
2022-09-06T17:11:45.048Z,27.06
2022-09-06T17:14:13.214Z,27.03
2022-09-06T17:16:58.808Z,26.99
2022-09-06T17:19:27.611Z,26.91
2022-09-06T17:21:55.749Z,26.82
2022-09-06T17:24:23.900Z,26.73
2022-09-06T17:26:53.622Z,26.66
2022-09-06T17:29:21.842Z,26.61
2022-09-06T17:31:53.993Z,26.55
2022-09-06T17:34:22.372Z,26.47
2022-09-06T17:36:50.478Z,26.39
2022-09-06T17:39:21.948Z,26.28
2022-09-06T17:41:51.068Z,26.21
2022-09-06T17:44:22.038Z,26.14
2022-09-06T17:47:11.960Z,26.08
2022-09-06T17:49:39.369Z,26.02
2022-09-06T17:52:07.525Z,25.98
2022-09-06T17:54:35.653Z,25.93
2022-09-06T17:57:03.801Z,25.87
2022-09-06T17:59:35.762Z,25.82
2022-09-06T18:02:05.043Z,25.77
2022-09-06T18:04:33.242Z,25.69
2022-09-06T18:07:01.683Z,25.62
2022-09-06T18:09:29.950Z,25.56
2022-09-06T18:11:58.594Z,25.51
2022-09-06T18:14:28.657Z,25.46
2022-09-06T18:16:58.276Z,25.42
2022-09-06T18:19:27.508Z,25.35
2022-09-06T18:21:57.219Z,25.27
2022-09-06T18:24:25.593Z,25.17
2022-09-06T18:26:53.877Z,25.07
2022-09-06T18:29:22.084Z,24.97
2022-09-06T18:31:53.559Z,24.92
2022-09-06T18:34:23.205Z,24.88
2022-09-06T18:36:51.472Z,24.83
2022-09-06T18:39:20.424Z,24.74
2022-09-06T18:42:00.824Z,24.71
2022-09-06T18:44:32.418Z,24.69
2022-09-06T18:47:02.206Z,24.67
2022-09-06T18:49:32.529Z,24.63
2022-09-06T18:52:01.294Z,24.58
2022-09-06T18:54:29.610Z,24.53
2022-09-06T18:56:57.815Z,24.48
2022-09-06T18:59:25.978Z,24.44
2022-09-06T19:01:54.156Z,24.34
2022-09-06T19:04:22.500Z,24.35
2022-09-06T19:06:52.025Z,24.33
2022-09-06T19:09:20.458Z,24.28
2022-09-06T19:11:51.618Z,24.22
2022-09-06T19:14:20.357Z,24.20
2022-09-06T19:16:50.213Z,24.17
2022-09-06T19:19:18.494Z,24.12
2022-09-06T19:21:46.598Z,24.08
2022-09-06T19:24:16.306Z,24.03
2022-09-06T19:26:45.207Z,23.99
2022-09-06T19:29:15.598Z,23.94
2022-09-06T19:31:45.341Z,23.90
2022-09-06T19:34:15.493Z,23.83
2022-09-06T19:36:44.538Z,23.76
2022-09-06T19:39:15.121Z,23.71
2022-09-06T19:41:46.769Z,23.66
2022-09-06T19:44:15.802Z,23.60
2022-09-06T19:46:46.115Z,23.52
2022-09-06T19:49:15.032Z,23.46
2022-09-06T19:51:44.302Z,23.37
2022-09-06T19:54:12.608Z,23.27
2022-09-06T19:56:40.665Z,23.18
2022-09-06T19:59:12.185Z,23.12
2022-09-06T20:01:41.786Z,23.12
2022-09-06T20:04:11.953Z,23.11
2022-09-06T20:06:40.382Z,23.08
2022-09-06T20:09:10.509Z,23.02
2022-09-06T20:11:40.345Z,22.99
2022-09-06T20:14:10.310Z,22.93
2022-09-06T20:16:41.923Z,22.88
2022-09-06T20:19:12.355Z,22.84
2022-09-06T20:21:40.536Z,22.70
2022-09-06T20:24:08.945Z,22.70
2022-09-06T20:26:37.786Z,22.65
2022-09-06T20:29:06.799Z,22.64
2022-09-06T20:31:38.079Z,22.59
2022-09-06T20:34:07.392Z,22.57
2022-09-06T20:36:35.539Z,22.54
2022-09-06T20:39:03.777Z,22.53
2022-09-06T20:41:32.213Z,22.51
2022-09-06T20:44:00.937Z,22.50
2022-09-06T20:46:31.025Z,22.48
2022-09-06T20:49:04.236Z,22.44
2022-09-06T20:51:32.964Z,22.40
2022-09-06T20:54:01.806Z,22.36
2022-09-06T20:56:31.678Z,22.33
2022-09-06T20:59:02.514Z,22.30
2022-09-06T21:01:33.524Z,22.27
2022-09-06T21:04:04.694Z,22.21
2022-09-06T21:06:35.619Z,22.17
2022-09-06T21:09:04.633Z,22.09
2022-09-06T21:11:33.024Z,21.97
2022-09-06T21:14:25.834Z,21.91
2022-09-06T21:16:53.882Z,21.85
2022-09-06T21:19:23.352Z,21.81
2022-09-06T21:21:51.427Z,21.76
2022-09-06T21:24:19.481Z,21.73
2022-09-06T21:26:47.559Z,21.70
2022-09-06T21:29:15.619Z,21.67
2022-09-06T21:31:43.708Z,21.64
2022-09-06T21:34:17.001Z,21.58
2022-09-06T21:36:46.776Z,21.42
2022-09-06T21:39:15.270Z,21.36
2022-09-06T21:41:44.250Z,21.24
2022-09-06T21:44:13.180Z,21.25
2022-09-06T21:46:41.840Z,21.24
2022-09-06T21:49:11.885Z,21.23
2022-09-06T21:51:40.663Z,21.23
2022-09-06T21:54:10.255Z,21.21
2022-09-06T21:56:39.676Z,21.21
2022-09-06T21:59:08.467Z,21.17
2022-09-06T22:01:37.711Z,21.14
2022-09-06T22:04:06.497Z,21.10
2022-09-06T22:06:35.710Z,21.07
2022-09-06T22:09:11.341Z,21.06
2022-09-06T22:11:42.258Z,21.03
2022-09-06T22:14:13.033Z,21.01
2022-09-06T22:16:41.844Z,20.97
2022-09-06T22:19:10.265Z,20.95
2022-09-06T22:21:38.746Z,20.91
2022-09-06T22:24:08.561Z,20.89
2022-09-06T22:26:37.985Z,20.87
2022-09-06T22:29:09.081Z,20.82
2022-09-06T22:31:37.659Z,20.78
2022-09-06T22:34:06.272Z,20.74
2022-09-06T22:36:34.564Z,20.73
2022-09-06T22:39:02.596Z,20.70
2022-09-06T22:41:32.848Z,20.67
2022-09-06T22:44:01.078Z,20.64
2022-09-06T22:46:30.614Z,20.60
2022-09-06T22:48:58.867Z,20.57
2022-09-06T22:51:27.185Z,20.46
2022-09-06T22:53:55.266Z,20.33
2022-09-06T22:56:23.364Z,20.24
2022-09-06T22:58:51.459Z,20.21
2022-09-06T23:01:19.598Z,20.18
2022-09-06T23:03:49.922Z,20.16
2022-09-06T23:06:18.081Z,20.15
2022-09-06T23:08:46.149Z,20.06
2022-09-06T23:11:18.841Z,20.01
2022-09-06T23:13:47.331Z,19.97
2022-09-06T23:16:17.139Z,19.92
2022-09-06T23:18:45.733Z,19.83
2022-09-06T23:21:16.962Z,19.86
2022-09-06T23:23:45.334Z,19.83
2022-09-06T23:26:14.979Z,19.82
2022-09-06T23:28:43.633Z,19.81
2022-09-06T23:31:12.947Z,19.79
2022-09-06T23:33:41.947Z,19.77
2022-09-06T23:36:11.560Z,19.61
2022-09-06T23:38:42.676Z,19.63
2022-09-06T23:41:11.084Z,19.59
2022-09-06T23:43:39.501Z,19.60
2022-09-06T23:46:08.124Z,19.56
2022-09-06T23:48:36.754Z,19.56
2022-09-06T23:51:05.170Z,19.52
2022-09-06T23:53:33.889Z,19.50
2022-09-06T23:56:03.813Z,19.44
2022-09-06T23:58:32.236Z,19.42
